Normandy Beach, New Jersey
Current Conditions -  °F | °C
As of 11:35 AM on Tuesday 21 Oct 2014 (Local Time) from KBLM Reporting Station
Overcast Overcast  
Wind Chill: 66°   Ceiling: 5500
Heat Index: 66°   Visibility: 10mi
Dew Point: 48°   Wind: 8mph
Humidity: 52%   Direction: 150°SSE
Pressure: 29.87"   Gusts: NA
Location:  40°N, 74.06°W
Report Text: KBLM 211535Z AUTO 15007KT 10SM SCT036 BKN055 OVC090 19/09 A2987 RMK AO1
Loading
Personal Weather Stations






























Interactive Weather Map
Tropical Storm Tracking
New forecast layout! Learn more

10-Day Weather Forecast

Advertisements
Track Severe Weather on mobile